Du har inga inställningar för hoppväder.nu

Hoppväder.nu

Senast uppdaterat 08:02

UTC-tid

2022-08-15 kl. 06:02


Sol och måne

Solen går upp 5:16 och går ner 21:41 (beräknade cirkatider)
Nästa fullmåne blir om 26 dagar (2022-09-10)

METAR

ESOW (Västerås)
(12 minuter sedan)
ESOW 150550Z 07005KT CAVOK 19/16 Q1014=



ESSA (Arlanda)
(12 minuter sedan)
ESSA 150550Z 07006KT CAVOK 19/17 Q1014 NOSIG=



ESKN (Skavsta)
(12 minuter sedan)
ESKN 150550Z 09005KT CAVOK 19/18 Q1013=



ESOE (Örebro)
(12 minuter sedan)
ESOE 150550Z 05007KT 0100 R01/0325N R19/0300N FG VV002 17/16 Q1013=



ESSD (Borlänge)
(12 minuter sedan)
ESSD 150550Z 11003KT CAVOK 17/14 Q1015=



TAF

ESOW (Västerås)
(32 minuter sedan)
ESOW 150530Z 1506/1515 07006KT CAVOK PROB40 1509/1515 FEW050CB=



ESSA (Arlanda)
(32 minuter sedan)
ESSA 150530Z 1506/1606 08009KT CAVOK PROB40 1509/1516 FEW050CB=



ESKN (Skavsta)
(32 minuter sedan)
ESKN 150530Z 1506/1606 10006KT CAVOK PROB40 1506/1513 SHRA BKN045CB=



ESOE (Örebro)
(32 minuter sedan)
ESOE 150530Z 1506/1508 05008KT 0250 FG VV002 BECMG 1506/1508 CAVOK=



ESSD (Borlänge)
(32 minuter sedan)
ESSD 150530Z 1506/1514 11005KT CAVOK=





Kodnycklar till TAF och METAR






LHP

(Västerås är område se32e i Delområde 4)

Översikt

ÖVERSIKT FÖR OMRÅDE se3 UTFÄRDAD 150345

GÄLLANDE DEN 15 AUGUSTI 2022 MELLAN 04 OCH 12 UTC


Väderöversikt
En sydostlig luftström råder över södra Sverige.

Sikt under 5 kilometer eller molnbas under 1000 fot
04-06UTC: I hela området
06-08UTC: Område se34

Måttlig eller svår isbildning
Väntas inte förekomma under perioden
Måttlig eller svår turbulens
Väntas inte förekomma under perioden


Delområde 4

PROGNOS FÖR OMRÅDE se32 UTFÄRDAD 150345
GÄLLANDE DEN 15 AUGUSTI 2022 MELLAN 04 OCH 12 UTC


Måttlig eller svår turbulens
04-12UTC: I hela området: Väntas inte förekomma under perioden

Måttlig eller svår isbildning
04-12UTC: I hela området: Väntas inte förekomma under perioden

Sikt/Väder/Moln
04-06UTC: Område se32j: Sikt <1.5km - >8km i dis, regnskurar, höga dimbankar, åska. Molnbas <500ft - >2000ft.
Område se32h,se32g,se32f: Sikt <1.5km i dis, lokalt >8km i höga dimbankar. Molnbas >2000ft, lokalt <500ft.
Område se32e: Sikt <1.5km - >8km i dis, höga dimbankar. Molnbas <500ft - >2000ft.
Område se32c: Sikt >8km, lokalt <1.5km i regnskurar, åska. Molnbas >2000ft.

04-08UTC: Område se32b,se32a,se32i: Sikt <1.5km - >8km i dis, regnskurar, höga dimbankar, åska. Molnbas <500ft - >2000ft.
Område se32d: Sikt <1.5km - >8km i dis, höga dimbankar. Molnbas <500ft - >2000ft.

06-08UTC: Område se32h,se32g: Sikt <1.5km - >8km i dis, höga dimbankar. Molnbas <500ft - >2000ft.
Område se32j: Sikt 3km - >8km i regnskurar, åska. Molnbas >2000ft.
Område se32c: Sikt >8km, lokalt 3km - 5km i regnskurar, åska. Molnbas >2000ft.

06-10UTC: Område se32f,se32e: Sikt >8km. Molnbas >2000ft.

08-10UTC: Område se32d,se32c,se32b,se32a,se32h,se32g,se32j,se32i: Sikt >8km. Molnbas >2000ft.

10-12UTC: Område se32j,se32i: Sikt >8km i regnskurar, åska. Molnbas >2000ft.
Område se32d,se32e: Sikt >8km, lokalt regnskurar. Molnbas >2000ft.
Område se32c,se32b,se32a,se32h,se32g,se32f: Sikt >8km i regnskurar. Molnbas >2000ft.


Molnöversida
04-06UTC: Område se32d,se32h,se32g,se32f,se32e,se32i: Molnöversida 1500ft.

04-12UTC: Område se32c,se32b,se32a,se32j: Molnöversida > FL125.

06-12UTC: Område se32d,se32h,se32g,se32f,se32e,se32i: Molnöversida > FL125.


CB/TCU Moln
04-06UTC: Område se32c,se32b,se32a,se32j,se32i: ocnl cb

04-08UTC: Område se32d,se32h,se32g,se32f,se32e: Väntas inte förekomma under perioden

06-08UTC: Område se32c,se32b,se32a,se32j,se32i: isol cb

08-10UTC: I hela området: tcu
10-12UTC: I hela området: isol cb

Nollgradersisoterm
04-08UTC: I hela området: Noll grader FL110 - > FL125.
08-10UTC: I hela området: Noll grader FL115 - > FL125.
10-12UTC: I hela området: Noll grader FL120 - > FL125.

Vind vid marken
04-06UTC: Område se32b: O/0-12 knop, byar upp till 15 knop.
Område se32i: O/1-11 knop, byar upp till 16 knop.
Område se32a: O/1-10 knop, byar upp till 13 knop.
Område se32c: O-SO/0-12 knop, byar upp till 16 knop.
Område se32d: NO-O/0-10 knop, byar upp till 13 knop.
Område se32f: NO-O/1-7 knop, byar upp till 12 knop.
Område se32g: O/0-5 knop, byar upp till 12 knop.
Område se32j: O/0-8 knop, byar upp till 18 knop.
Område se32h: NO-O/1-9 knop, byar upp till 15 knop.
Område se32e: NO-O/1-8 knop, byar upp till 12 knop.

06-08UTC: Område se32a: O-SO/2-12 knop, byar upp till 15 knop.
Område se32g: O/2-6 knop.
Område se32e: O/2-8 knop, byar upp till 13 knop.
Område se32j: O/0-8 knop, byar upp till 15 knop.
Område se32f: O/2-5 knop.
Område se32d: NO-O/1-7 knop, byar upp till 12 knop.
Område se32c: O-SO/1-12 knop, byar upp till 14 knop.
Område se32h: NO-O/1-10 knop, byar upp till 14 knop.
Område se32i: O/1-9 knop, byar upp till 14 knop.
Område se32b: O-SO/2-11 knop, byar upp till 15 knop.

08-10UTC: Område se32j: O-SO/2-10 knop, byar upp till 17 knop.
Område se32i: O/3-12 knop, byar upp till 17 knop.
Område se32b: O-SO/3-12 knop, byar upp till 16 knop.
Område se32a: O-SO/3-13 knop, byar upp till 18 knop.
Område se32g: O/3-7 knop.
Område se32h: O/2-8 knop, byar upp till 15 knop.
Område se32e: O/3-9 knop, byar upp till 15 knop.
Område se32d: O/3-10 knop, byar upp till 15 knop.
Område se32c: O-SO/2-10 knop, byar upp till 15 knop.
Område se32f: O-SO/4-7 knop, byar upp till 15 knop.

10-12UTC: Område se32c: O/3-7 knop, byar upp till 19 knop.
Område se32g: O-SO/4-11 knop, byar upp till 21 knop.
Område se32a: O-SO/5-11 knop, byar upp till 19 knop.
Område se32h: O-SO/3-12 knop, byar upp till 21 knop.
Område se32j: O-SO/2-11 knop, byar upp till 22 knop.
Område se32d: O-SO/3-9 knop, byar upp till 15 knop.
Område se32e: O-SO/4-12 knop, byar upp till 20 knop.
Område se32i: O-SO/5-12 knop, byar upp till 21 knop.
Område se32b: O-SO/4-11 knop, byar upp till 20 knop.
Område se32f: O-SO/5-12 knop, byar upp till 20 knop.


Genomsnittlig vind och temperatur för området

2000ft:
04-06UTC: 140/15kt +20.
06-08UTC: 140/14kt +20.
08-10UTC: 130/16kt +20.
10-12UTC: 130/18kt +20.

FL050:
04-06UTC: 160/15kt +13.
06-08UTC: 160/17kt +13.
08-10UTC: 160/18kt +13.
10-12UTC: 150/19kt +13.

FL100:
04-06UTC: 170/16kt +1.
06-08UTC: 170/18kt +1.
08-10UTC: 160/19kt +1.
10-12UTC: 150/18kt +1.

Lägsta QNH
04-08UTC: I hela området: 1011 hPa
08-10UTC: I hela området: 1010 hPa
10-12UTC: I hela området: 1009 hPa

OBS! endast utbredd måttlig eller svår isbildning och turbulens prognostiseras i LLF.
Avsaknad av isbildning och turbulens i prognosen utesluter inte förekomst av lätt isbildning och turbulens.
För indikation på lätt isbildning, var vänlig kontrollera om prognosen för molntopp ligger högre än nollgradersisotermen.
Förekomst av TCU eller CB medför alltid en risk för måttlig eller svår isbildning och turbulens även om det inte framgår explicit av prognosen.








Spotting

Hur fungerar spotthjälpen och Vindkartan?

Markvind är ca 1-4 m/s med byar på 7 m/s.
Vind på 600 m ca 7 m/s.
Vind på 1500 m ca 9 m/s.
Vind på 3000 m ca 9 m/s.
Zäta Yngve flyger ca 32 m/s över marken på finalen.
Du driver ca 417 m bakåt i frifall. (556 m)
Lämplig spot är 4 sekunder eller 128 m efter gropen.
(9 s eller 287 m)
För små grupper eller ensamhoppare bör man vänta 5-7 sekunder mellan grupperna.
För större grupper bör man vänta 9-11 sekunder mellan grupperna.


Vindkartan

Senast uppdaterad 08:02




All data kommer från LFV.se